Time;durP1;ratioP1;P1;durP2;ratioP2;P2;SDS_P1;SDS_P2;PMS_P1;PMS_P2;Temp;Humidity;BMP_temperature;BMP_pressure;BME280_temperature;BME280_humidity;BME280_pressure;Samples;Min_cycle;Max_cycle;Signal;HPM_P1;HPM_P2
2023/08/25 00:01:42;;;;;;;7.18;4.97;;;22.70;99.90;;;;;;4981083;28;20027;-89
2023/08/25 00:04:07;;;;;;;6.95;4.80;;;22.70;99.90;;;;;;4981188;28;20031;-89
2023/08/25 00:06:33;;;;;;;6.82;4.97;;;22.70;99.90;;;;;;4981526;28;20046;-88
2023/08/25 00:08:59;;;;;;;7.03;4.63;;;22.70;99.90;;;;;;4998215;28;20038;-88
2023/08/25 00:11:24;;;;;;;8.00;4.25;;;22.60;99.90;;;;;;4981608;28;20030;-88
2023/08/25 00:13:50;;;;;;;5.97;4.20;;;22.60;99.90;;;;;;4998619;28;20030;-89
2023/08/25 00:16:15;;;;;;;6.63;4.47;;;22.60;99.90;;;;;;4980801;28;20031;-88
2023/08/25 00:22:03;;;;;;;;;;;22.60;99.90;;;;;;4998356;28;20025;-88
2023/08/25 00:24:37;;;;;;;4.88;3.17;;;22.60;99.90;;;;;;4981413;28;20243;-88
2023/08/25 00:27:03;;;;;;;6.38;3.50;;;22.50;99.90;;;;;;4998334;28;20030;-89
2023/08/25 00:29:28;;;;;;;5.88;3.30;;;22.60;99.90;;;;;;4980790;28;20561;-90
2023/08/25 00:31:54;;;;;;;7.45;3.15;;;22.50;99.90;;;;;;4998083;28;20034;-86
2023/08/25 00:34:20;;;;;;;4.00;3.17;;;22.50;99.90;;;;;;4980737;28;20031;-88
2023/08/25 00:36:45;;;;;;;7.30;3.20;;;22.50;99.90;;;;;;4980685;28;20049;-88
2023/08/25 00:39:11;;;;;;;4.40;2.60;;;22.50;99.90;;;;;;4997894;28;20027;-88
2023/08/25 00:41:36;;;;;;;6.28;3.10;;;22.50;99.90;;;;;;4998350;28;20114;-88
2023/08/25 00:44:03;;;;;;;6.90;2.78;;;22.50;99.90;;;;;;4980821;28;20030;-88
2023/08/25 00:46:30;;;;;;;5.45;3.28;;;22.50;99.90;;;;;;4997571;28;20034;-88
2023/08/25 00:48:56;;;;;;;5.32;3.08;;;22.50;99.90;;;;;;4980355;28;20041;-87
2023/08/25 00:51:23;;;;;;;4.63;3.25;;;22.40;99.90;;;;;;4980519;28;20030;-88
2023/08/25 00:53:49;;;;;;;6.13;2.90;;;22.40;99.90;;;;;;4980011;28;20082;-88
2023/08/25 00:56:16;;;;;;;6.50;3.05;;;22.40;99.90;;;;;;4995962;28;20062;-88
2023/08/25 00:58:42;;;;;;;3.35;2.60;;;22.40;99.90;;;;;;4996717;28;20054;-88
2023/08/25 01:01:08;;;;;;;5.30;2.40;;;22.50;99.90;;;;;;4979486;28;20035;-88
2023/08/25 01:03:38;;;;;;;4.47;2.70;;;22.50;99.90;;;;;;4995589;28;20038;-89
2023/08/25 01:06:04;;;;;;;3.05;2.20;;;22.50;99.90;;;;;;4980006;28;20053;-88
2023/08/25 01:08:30;;;;;;;4.28;2.53;;;22.50;99.90;;;;;;4995787;28;20030;-91
2023/08/25 01:11:02;;;;;;;3.38;2.63;;;22.40;99.90;;;;;;4995620;28;20089;-87
2023/08/25 01:13:50;;;;;;;3.55;2.70;;;22.40;99.90;;;;;;4997146;28;20030;-87
2023/08/25 01:16:18;;;;;;;4.80;2.72;;;22.40;99.90;;;;;;4996024;28;20121;-87
2023/08/25 01:18:44;;;;;;;4.22;2.60;;;22.40;99.90;;;;;;4975652;28;20053;-86
2023/08/25 01:21:11;;;;;;;8.45;2.70;;;22.30;99.90;;;;;;4976421;28;20483;-87
2023/08/25 01:23:55;;;;;;;5.40;2.90;;;22.20;99.90;;;;;;4975842;28;20050;-87
2023/08/25 01:26:20;;;;;;;4.10;3.13;;;22.20;99.90;;;;;;4975733;28;20027;-86
2023/08/25 01:28:50;;;;;;;4.60;3.35;;;22.20;99.90;;;;;;4975708;28;20057;-88
2023/08/25 01:31:19;;;;;;;5.07;3.33;;;22.20;99.90;;;;;;4979524;28;20027;-86
2023/08/25 01:33:45;;;;;;;4.65;3.08;;;22.20;99.90;;;;;;4978996;28;20026;-87
2023/08/25 01:36:18;;;;;;;6.78;3.20;;;22.20;99.90;;;;;;4996297;28;20029;-87
2023/08/25 01:38:51;;;;;;;4.38;3.00;;;22.10;99.90;;;;;;4978855;28;20458;-87
2023/08/25 01:41:30;;;;;;;6.35;3.22;;;22.10;99.90;;;;;;4996146;28;20030;-87
2023/08/25 01:43:59;;;;;;;4.70;3.20;;;22.10;99.90;;;;;;4978524;28;20031;-87
2023/08/25 01:46:26;;;;;;;5.70;3.47;;;22.10;99.90;;;;;;4978596;28;20524;-86
2023/08/25 01:48:53;;;;;;;4.95;3.13;;;22.00;99.90;;;;;;4978473;28;20379;-87
2023/08/25 01:51:20;;;;;;;7.30;3.38;;;22.10;99.90;;;;;;4979226;28;20033;-87
2023/08/25 01:53:51;;;;;;;6.28;2.85;;;22.10;99.90;;;;;;4995729;28;20022;-86
2023/08/25 01:56:16;;;;;;;4.65;3.15;;;22.00;99.90;;;;;;4996330;28;20033;-87
2023/08/25 01:58:42;;;;;;;5.18;3.03;;;22.00;99.90;;;;;;4978450;28;20034;-87
2023/08/25 02:01:07;;;;;;;9.15;3.50;;;22.00;99.90;;;;;;4978675;28;20391;-87
2023/08/25 02:03:33;;;;;;;4.63;2.80;;;22.10;99.90;;;;;;4978183;28;20036;-90
2023/08/25 02:05:59;;;;;;;6.65;3.05;;;22.00;99.90;;;;;;4995771;28;20034;-86
2023/08/25 02:08:24;;;;;;;6.85;3.10;;;22.00;99.90;;;;;;4978305;28;20031;-86
2023/08/25 02:10:50;;;;;;;7.40;2.90;;;22.00;99.90;;;;;;4978436;28;20027;-86
2023/08/25 02:13:15;;;;;;;6.00;2.97;;;21.90;99.90;;;;;;4995501;28;20460;-87
2023/08/25 02:15:46;;;;;;;6.15;3.17;;;21.90;99.90;;;;;;4994774;28;20028;-88
2023/08/25 02:18:12;;;;;;;8.45;3.00;;;21.90;99.90;;;;;;4995167;28;20030;-87
2023/08/25 02:20:41;;;;;;;5.50;3.47;;;21.90;99.90;;;;;;4995263;28;20033;-91
2023/08/25 02:23:07;;;;;;;3.58;3.20;;;21.90;99.90;;;;;;4977990;28;20030;-88
2023/08/25 02:25:33;;;;;;;5.13;2.90;;;21.90;99.90;;;;;;4978279;28;20085;-88
2023/08/25 02:27:58;;;;;;;5.53;2.53;;;21.80;99.90;;;;;;4977752;28;20030;-88
2023/08/25 02:30:24;;;;;;;5.10;3.20;;;21.70;99.90;;;;;;4978145;28;20034;-89
2023/08/25 02:32:50;;;;;;;8.15;2.67;;;21.70;99.90;;;;;;4977557;28;20026;-87
2023/08/25 02:35:15;;;;;;;5.60;2.83;;;21.70;99.90;;;;;;4977849;28;20022;-87
2023/08/25 02:37:57;;;;;;;5.00;2.75;;;21.60;99.90;;;;;;4977395;28;20038;-89
2023/08/25 02:40:23;;;;;;;;;;;21.70;99.90;;;;;;4997209;28;20037;-88
2023/08/25 02:42:48;;;;;;;2.97;2.60;;;21.60;99.90;;;;;;4993932;28;19941;-89
2023/08/25 02:45:14;;;;;;;4.70;2.85;;;21.70;99.90;;;;;;4995643;28;20046;-87
2023/08/25 02:47:40;;;;;;;4.75;3.17;;;21.70;99.90;;;;;;4995610;28;20018;-93
2023/08/25 02:50:05;;;;;;;5.78;2.85;;;21.70;99.90;;;;;;5011198;28;20026;-87
2023/08/25 02:52:31;;;;;;;4.47;2.88;;;21.60;99.90;;;;;;4996556;28;20127;-88
2023/08/25 02:54:57;;;;;;;3.28;2.75;;;21.60;99.90;;;;;;4994606;28;20022;-88
2023/08/25 02:57:22;;;;;;;8.20;2.90;;;21.70;99.90;;;;;;4993204;28;20053;-87
2023/08/25 02:59:48;;;;;;;5.57;2.75;;;21.60;99.90;;;;;;5013312;28;20042;-88
2023/08/25 03:02:13;;;;;;;3.78;3.00;;;21.60;99.90;;;;;;5010451;28;20034;-87
2023/08/25 03:04:39;;;;;;;7.28;3.17;;;21.60;99.90;;;;;;4993276;28;20022;-94
2023/08/25 03:07:05;;;;;;;8.40;3.20;;;21.50;99.90;;;;;;5013477;28;20011;-88
2023/08/25 03:09:30;;;;;;;5.13;2.95;;;21.50;99.90;;;;;;4983307;28;20034;-89
2023/08/25 03:11:56;;;;;;;5.53;2.70;;;21.60;99.90;;;;;;4995548;28;20081;-88
2023/08/25 03:14:21;;;;;;;4.97;2.83;;;21.50;99.90;;;;;;4979119;28;20026;-88
2023/08/25 03:16:48;;;;;;;4.65;3.10;;;21.50;99.90;;;;;;4998804;28;20460;-88
2023/08/25 03:19:14;;;;;;;7.68;2.92;;;21.50;99.90;;;;;;4981980;28;20046;-88
2023/08/25 03:21:40;;;;;;;5.93;2.80;;;21.50;99.90;;;;;;4982523;28;20077;-89
2023/08/25 03:24:05;;;;;;;6.13;3.40;;;21.50;99.90;;;;;;4982299;28;20490;-89
2023/08/25 03:26:31;;;;;;;4.90;2.90;;;21.50;99.90;;;;;;4981989;28;20030;-88
2023/08/25 03:28:57;;;;;;;6.68;2.92;;;21.50;99.90;;;;;;4981972;28;20483;-89
2023/08/25 03:31:22;;;;;;;6.45;3.13;;;21.50;99.90;;;;;;4998848;28;20026;-88
2023/08/25 03:33:48;;;;;;;8.07;3.00;;;21.40;99.90;;;;;;4981750;28;20026;-89
2023/08/25 03:36:13;;;;;;;3.90;2.47;;;21.40;99.90;;;;;;4981783;28;20387;-88
2023/08/25 03:38:39;;;;;;;5.60;3.00;;;21.40;99.90;;;;;;4981720;28;20041;-90
2023/08/25 03:41:04;;;;;;;3.58;2.83;;;21.40;99.90;;;;;;4998639;28;20030;-88
2023/08/25 03:43:30;;;;;;;4.68;2.72;;;21.40;99.90;;;;;;4998546;28;20062;-87
2023/08/25 03:45:56;;;;;;;3.88;3.08;;;21.30;99.90;;;;;;4981420;28;20033;-89
2023/08/25 03:48:23;;;;;;;5.30;2.85;;;21.30;99.90;;;;;;4981795;28;20034;-89
2023/08/25 03:50:48;;;;;;;4.15;2.90;;;21.30;99.90;;;;;;4981405;28;20030;-89
2023/08/25 03:53:14;;;;;;;5.93;2.75;;;21.30;99.90;;;;;;4981461;28;20444;-88
2023/08/25 03:55:40;;;;;;;4.65;3.17;;;21.30;99.90;;;;;;4981416;28;20022;-91
2023/08/25 03:58:06;;;;;;;6.32;2.92;;;21.40;99.90;;;;;;4981401;28;20037;-89
2023/08/25 04:00:31;;;;;;;4.55;2.75;;;21.40;99.90;;;;;;4981048;28;20057;-87
2023/08/25 04:02:57;;;;;;;4.05;3.03;;;21.40;99.90;;;;;;4981506;28;20023;-87
2023/08/25 04:05:22;;;;;;;4.78;2.50;;;21.40;99.90;;;;;;4981493;28;20442;-87
2023/08/25 04:07:49;;;;;;;6.32;2.92;;;21.30;99.90;;;;;;4981739;28;20030;-87
2023/08/25 04:10:14;;;;;;;6.38;2.90;;;21.30;99.90;;;;;;4980957;28;20038;-89
2023/08/25 04:12:40;;;;;;;4.97;2.92;;;21.30;99.90;;;;;;4981279;28;20027;-90
2023/08/25 04:15:06;;;;;;;6.35;2.88;;;21.30;99.90;;;;;;4980863;28;20030;-88
2023/08/25 04:17:34;;;;;;;4.00;2.78;;;21.20;99.90;;;;;;4981036;28;20027;-88
2023/08/25 04:20:01;;;;;;;6.60;3.20;;;21.20;99.90;;;;;;4980510;28;20046;-89
2023/08/25 04:22:27;;;;;;;4.13;2.70;;;21.10;99.90;;;;;;4981153;28;20498;-88
2023/08/25 04:24:52;;;;;;;7.10;2.95;;;21.10;99.90;;;;;;4980229;28;20026;-88
2023/08/25 04:27:18;;;;;;;5.85;2.70;;;21.10;99.90;;;;;;4980050;28;20439;-88
2023/08/25 04:29:44;;;;;;;5.60;2.95;;;21.20;99.90;;;;;;4980400;28;20037;-90
2023/08/25 04:32:09;;;;;;;5.93;2.90;;;21.10;99.90;;;;;;4997695;28;20039;-88
2023/08/25 04:34:35;;;;;;;5.97;3.20;;;21.10;99.90;;;;;;4980637;28;20478;-88
2023/08/25 04:37:01;;;;;;;5.63;2.85;;;21.10;99.90;;;;;;4980321;28;20113;-88
2023/08/25 04:39:26;;;;;;;7.20;2.80;;;21.10;99.90;;;;;;4980607;28;20390;-88
2023/08/25 04:41:52;;;;;;;5.45;3.45;;;21.10;99.90;;;;;;4980581;28;20066;-88
2023/08/25 04:44:18;;;;;;;4.53;2.95;;;21.10;99.90;;;;;;4980590;28;20096;-88
2023/08/25 04:46:44;;;;;;;6.07;3.10;;;21.20;99.90;;;;;;4997968;28;20468;-87
2023/08/25 04:49:10;;;;;;;4.93;3.42;;;21.20;99.90;;;;;;4980198;28;20056;-88
2023/08/25 04:51:36;;;;;;;6.05;3.28;;;21.30;99.90;;;;;;4997431;28;20472;-88
2023/08/25 04:54:02;;;;;;;7.15;3.00;;;21.30;99.90;;;;;;4997543;28;20109;-88
2023/08/25 04:56:28;;;;;;;7.78;3.42;;;21.40;99.90;;;;;;4997780;28;20022;-88
2023/08/25 04:58:53;;;;;;;6.32;3.53;;;21.40;99.90;;;;;;4997350;28;20026;-88
2023/08/25 05:01:19;;;;;;;4.55;2.92;;;21.50;99.90;;;;;;4980434;28;20054;-88
2023/08/25 05:03:45;;;;;;;3.47;3.00;;;21.50;99.90;;;;;;4979851;28;20027;-92
2023/08/25 05:06:11;;;;;;;3.88;3.28;;;21.50;99.90;;;;;;4997056;28;20101;-88
2023/08/25 05:08:37;;;;;;;5.30;3.20;;;21.50;99.90;;;;;;4979858;28;20121;-88
2023/08/25 05:11:03;;;;;;;5.47;3.00;;;21.60;99.90;;;;;;4979464;28;20046;-88
2023/08/25 05:13:28;;;;;;;7.47;3.17;;;21.70;99.90;;;;;;4979633;28;20427;-88
2023/08/25 05:15:54;;;;;;;6.07;3.05;;;21.70;99.90;;;;;;4979721;28;20053;-88
2023/08/25 05:18:48;;;;;;;7.80;3.22;;;21.70;99.90;;;;;;4979532;28;20050;-89
2023/08/25 05:21:14;;;;;;;6.60;3.42;;;21.60;99.90;;;;;;4979816;28;20030;-88
2023/08/25 05:23:46;;;;;;;4.43;2.83;;;21.60;99.90;;;;;;4980229;28;20031;-88
2023/08/25 05:26:15;;;;;;;3.75;2.90;;;21.60;99.90;;;;;;4980252;28;20030;-88
2023/08/25 05:28:42;;;;;;;7.93;3.42;;;21.60;99.90;;;;;;4979887;28;20026;-88
2023/08/25 05:31:08;;;;;;;4.68;3.03;;;21.70;99.90;;;;;;4997061;28;20487;-88
2023/08/25 05:33:35;;;;;;;7.15;3.13;;;21.70;99.90;;;;;;4979790;28;20026;-88
2023/08/25 05:36:00;;;;;;;5.53;2.97;;;21.70;99.90;;;;;;4995808;28;20026;-88
2023/08/25 05:38:26;;;;;;;4.95;3.00;;;21.70;99.90;;;;;;4979012;28;20121;-88
2023/08/25 05:40:51;;;;;;;5.93;2.95;;;21.80;99.90;;;;;;4979286;28;20065;-88
2023/08/25 05:43:17;;;;;;;6.00;3.45;;;21.90;99.90;;;;;;4996552;28;20035;-88
2023/08/25 05:45:43;;;;;;;4.68;3.00;;;21.90;99.90;;;;;;4996796;28;20468;-88
2023/08/25 05:48:08;;;;;;;5.25;3.05;;;21.90;99.90;;;;;;4996499;28;20080;-88
2023/08/25 05:50:35;;;;;;;7.20;3.10;;;22.00;99.90;;;;;;4996575;28;20495;-88
2023/08/25 05:53:01;;;;;;;6.50;3.20;;;22.00;99.90;;;;;;4979177;28;20034;-88
2023/08/25 05:55:27;;;;;;;6.30;3.10;;;22.00;99.90;;;;;;4979996;28;20049;-88
2023/08/25 05:57:52;;;;;;;8.25;4.03;;;21.90;99.90;;;;;;4996624;28;20475;-89
2023/08/25 06:00:18;;;;;;;6.70;4.00;;;21.90;99.90;;;;;;4979538;28;20026;-89
2023/08/25 06:02:44;;;;;;;7.18;3.20;;;21.80;99.90;;;;;;4978773;28;20081;-89
2023/08/25 06:05:10;;;;;;;4.63;3.38;;;21.80;99.90;;;;;;4979568;28;20018;-89
2023/08/25 06:07:35;;;;;;;6.63;3.40;;;21.70;99.90;;;;;;4979315;28;20482;-89
2023/08/25 06:10:01;;;;;;;6.70;3.10;;;21.80;99.90;;;;;;4979166;28;20037;-88
2023/08/25 06:12:26;;;;;;;10.10;3.72;;;21.70;99.90;;;;;;4996344;28;20030;-89
2023/08/25 06:14:52;;;;;;;8.43;3.40;;;21.70;99.90;;;;;;4978981;28;20085;-90
2023/08/25 06:17:17;;;;;;;4.63;3.40;;;21.70;99.90;;;;;;4996443;28;20443;-89
2023/08/25 06:19:43;;;;;;;7.72;3.10;;;21.70;99.90;;;;;;4977466;28;20863;-89
2023/08/25 06:22:11;;;;;;;6.18;2.85;;;21.70;99.90;;;;;;4978603;28;20463;-89
2023/08/25 06:24:36;;;;;;;6.50;3.03;;;21.70;99.90;;;;;;4979044;28;20033;-89
2023/08/25 06:30:25;;;;;;;;;;;21.80;99.90;;;;;;4996087;28;20049;-89
2023/08/25 06:32:52;;;;;;;5.20;3.05;;;21.70;99.90;;;;;;4995952;28;19956;-89
2023/08/25 06:35:18;;;;;;;6.15;3.10;;;21.70;99.90;;;;;;4978642;28;20113;-89
2023/08/25 06:37:44;;;;;;;4.88;2.65;;;21.70;99.90;;;;;;4978262;28;20030;-90
2023/08/25 06:40:10;;;;;;;6.53;3.20;;;21.70;99.90;;;;;;4977926;28;20117;-91
2023/08/25 06:42:37;;;;;;;5.03;2.90;;;21.70;99.90;;;;;;4978171;28;20049;-92
2023/08/25 06:45:04;;;;;;;5.38;2.80;;;21.80;99.90;;;;;;4978737;28;20027;-90
2023/08/25 06:47:30;;;;;;;6.18;2.80;;;21.70;99.90;;;;;;4978381;28;20034;-90
2023/08/25 06:49:56;;;;;;;4.97;3.10;;;21.70;99.90;;;;;;4978028;28;20030;-91
2023/08/25 06:52:22;;;;;;;7.53;2.72;;;21.70;99.90;;;;;;4978159;28;20031;-90
2023/08/25 06:54:47;;;;;;;10.88;2.90;;;21.80;99.90;;;;;;4978200;28;20065;-90
2023/08/25 06:57:13;;;;;;;5.70;2.78;;;21.80;99.90;;;;;;4995005;28;20065;-90
2023/08/25 06:59:39;;;;;;;6.07;2.50;;;21.70;99.90;;;;;;4978165;28;20133;-90
2023/08/25 07:02:04;;;;;;;9.23;3.30;;;21.60;99.90;;;;;;4995164;28;20022;-90
2023/08/25 07:04:30;;;;;;;6.60;2.67;;;21.60;99.90;;;;;;4995439;28;20029;-91
2023/08/25 07:06:56;;;;;;;3.40;2.28;;;21.50;99.90;;;;;;4978132;28;20452;-90
2023/08/25 07:09:21;;;;;;;6.00;2.70;;;21.50;99.90;;;;;;4977904;28;20026;-90
2023/08/25 07:11:47;;;;;;;5.15;2.38;;;21.50;99.90;;;;;;4978230;28;20037;-90
2023/08/25 07:14:13;;;;;;;4.05;2.00;;;21.40;99.90;;;;;;4977891;28;20031;-90
2023/08/25 07:16:39;;;;;;;6.50;2.38;;;21.50;99.90;;;;;;4995725;28;20037;-91
2023/08/25 07:19:04;;;;;;;4.75;2.00;;;21.40;99.90;;;;;;4977750;28;20033;-90
2023/08/25 07:21:30;;;;;;;4.63;2.38;;;21.40;99.90;;;;;;4995588;28;20121;-89
2023/08/25 07:23:55;;;;;;;5.15;2.50;;;21.50;99.90;;;;;;4995238;28;20027;-88
2023/08/25 07:26:22;;;;;;;5.07;2.22;;;21.50;99.90;;;;;;4995279;28;20027;-88
2023/08/25 07:28:47;;;;;;;2.55;2.08;;;21.50;99.90;;;;;;4994690;28;20482;-88
2023/08/25 07:31:13;;;;;;;3.35;2.15;;;21.50;99.90;;;;;;4977523;28;20031;-91
2023/08/25 07:33:39;;;;;;;6.25;2.60;;;21.40;99.90;;;;;;4977100;28;20035;-89
2023/08/25 07:36:05;;;;;;;5.53;1.88;;;21.50;99.90;;;;;;4994386;28;20023;-90
2023/08/25 07:38:30;;;;;;;2.58;1.77;;;21.40;99.90;;;;;;4978025;28;20030;-87
2023/08/25 07:40:56;;;;;;;4.70;1.75;;;21.40;99.90;;;;;;4994123;28;20105;-88
2023/08/25 07:43:22;;;;;;;4.53;2.22;;;21.40;99.90;;;;;;4976725;28;20034;-89
2023/08/25 07:45:48;;;;;;;3.80;1.80;;;21.40;99.90;;;;;;4978032;28;20118;-88
2023/08/25 07:48:14;;;;;;;3.65;1.90;;;21.50;99.90;;;;;;4977798;28;20117;-87
2023/08/25 07:50:40;;;;;;;3.15;1.52;;;21.50;99.90;;;;;;4975923;28;20094;-87
2023/08/25 07:53:05;;;;;;;3.75;1.52;;;21.50;99.90;;;;;;4976104;28;20027;-86
2023/08/25 07:55:32;;;;;;;4.80;1.52;;;21.50;99.90;;;;;;4993382;28;20030;-86
2023/08/25 07:57:57;;;;;;;3.10;1.80;;;21.60;99.90;;;;;;4975212;28;20692;-86
2023/08/25 08:00:23;;;;;;;6.85;1.90;;;21.60;99.90;;;;;;4976200;28;20094;-86
2023/08/25 08:02:50;;;;;;;4.43;1.60;;;21.60;99.90;;;;;;4978707;28;20454;-87
2023/08/25 08:05:17;;;;;;;3.42;1.38;;;21.60;99.90;;;;;;4979254;28;20530;-86
2023/08/25 08:07:44;;;;;;;1.67;1.25;;;21.60;99.90;;;;;;4979661;28;20030;-85
2023/08/25 08:10:11;;;;;;;2.25;1.10;;;21.60;99.90;;;;;;4995870;28;20459;-84
2023/08/25 08:12:37;;;;;;;2.03;1.30;;;21.60;99.90;;;;;;4996564;28;20038;-85
2023/08/25 08:15:04;;;;;;;3.38;1.40;;;21.60;99.90;;;;;;4978813;28;20038;-88
2023/08/25 08:17:30;;;;;;;4.30;1.58;;;21.60;99.90;;;;;;4979409;28;20052;-86
2023/08/25 08:19:57;;;;;;;3.55;1.63;;;21.60;99.90;;;;;;4978548;28;20050;-85
2023/08/25 08:22:22;;;;;;;1.95;1.38;;;21.70;99.90;;;;;;4980593;28;20026;-86
2023/08/25 08:24:48;;;;;;;2.45;1.38;;;21.70;99.90;;;;;;4981728;28;20384;-87
2023/08/25 08:27:18;;;;;;;2.97;1.30;;;21.70;99.90;;;;;;4980441;28;20027;-86
2023/08/25 08:29:46;;;;;;;4.85;1.63;;;21.70;99.90;;;;;;4980205;28;20472;-86
2023/08/25 08:32:16;;;;;;;3.28;1.52;;;21.80;99.90;;;;;;4996338;28;20030;-84
2023/08/25 08:34:43;;;;;;;4.80;1.73;;;22.00;99.90;;;;;;4996144;28;20472;-85
2023/08/25 08:37:09;;;;;;;3.00;1.60;;;22.00;99.90;;;;;;4995278;28;20026;-86
2023/08/25 08:39:37;;;;;;;3.08;1.55;;;22.10;99.90;;;;;;4979082;28;20034;-85
2023/08/25 08:42:03;;;;;;;2.78;1.15;;;22.20;99.90;;;;;;4978381;28;20057;-85
2023/08/25 08:44:36;;;;;;;3.75;1.58;;;22.20;99.90;;;;;;4975375;28;20180;-88
2023/08/25 08:47:06;;;;;;;4.85;1.58;;;22.20;99.90;;;;;;4978425;28;20031;-87
2023/08/25 08:49:33;;;;;;;3.38;1.60;;;22.20;99.90;;;;;;4995956;28;20041;-85
2023/08/25 08:52:01;;;;;;;4.10;1.73;;;22.30;99.90;;;;;;4978356;28;20034;-86
2023/08/25 08:54:27;;;;;;;3.80;1.92;;;22.30;99.90;;;;;;4978683;28;20027;-87
2023/08/25 08:56:54;;;;;;;8.48;1.98;;;22.30;99.90;;;;;;4977984;28;20034;-88
2023/08/25 08:59:19;;;;;;;1.73;1.48;;;22.30;99.90;;;;;;4978394;28;20122;-85
2023/08/25 09:01:46;;;;;;;3.45;1.80;;;22.30;99.90;;;;;;4978427;28;20054;-86
2023/08/25 09:04:12;;;;;;;4.72;1.80;;;22.40;99.90;;;;;;4978369;28;20391;-86
2023/08/25 09:06:39;;;;;;;8.95;2.90;;;22.40;99.90;;;;;;4995171;28;20038;-89
2023/08/25 09:09:06;;;;;;;9.98;4.28;;;22.40;99.90;;;;;;4978003;28;20034;-86
2023/08/25 09:11:35;;;;;;;6.85;3.00;;;22.50;99.90;;;;;;4995604;28;20061;-88
2023/08/25 09:14:04;;;;;;;6.57;2.40;;;22.50;99.90;;;;;;4994693;28;20079;-86
2023/08/25 09:16:35;;;;;;;8.23;2.85;;;22.60;99.90;;;;;;4978268;28;20030;-86
2023/08/25 09:19:05;;;;;;;8.38;2.22;;;22.70;99.90;;;;;;4977580;28;20062;-86
2023/08/25 09:21:31;;;;;;;3.70;1.83;;;22.80;99.90;;;;;;4977835;28;20042;-87
2023/08/25 09:23:59;;;;;;;3.40;1.77;;;22.90;99.90;;;;;;4978616;28;20037;-85
2023/08/25 09:26:26;;;;;;;3.92;1.98;;;22.90;99.90;;;;;;4978097;28;20030;-85
2023/08/25 09:28:57;;;;;;;3.53;1.70;;;22.90;99.90;;;;;;4977712;28;20485;-84
2023/08/25 09:31:27;;;;;;;6.00;1.92;;;22.90;99.90;;;;;;4977376;28;20027;-88
2023/08/25 09:34:14;;;;;;;3.33;1.80;;;23.00;99.90;;;;;;4976666;28;20049;-87
2023/08/25 09:36:55;;;;;;;2.58;1.50;;;23.00;99.90;;;;;;4977359;28;20038;-87
2023/08/25 09:39:21;;;;;;;2.30;1.55;;;23.00;99.90;;;;;;4994491;28;20034;-86
2023/08/25 09:41:48;;;;;;;5.35;1.67;;;23.00;99.90;;;;;;4977785;28;20058;-86
2023/08/25 09:44:15;;;;;;;4.25;2.28;;;22.90;99.90;;;;;;4977386;28;20039;-87
2023/08/25 09:46:43;;;;;;;3.47;1.65;;;22.90;99.90;;;;;;4977841;28;20137;-86
2023/08/25 09:49:10;;;;;;;5.10;1.55;;;22.90;99.90;;;;;;4977495;28;20034;-84
2023/08/25 09:51:44;;;;;;;3.95;1.50;;;22.90;99.90;;;;;;4977568;28;20031;-86
2023/08/25 09:54:12;;;;;;;5.03;1.73;;;22.80;99.90;;;;;;4977194;28;20054;-87
2023/08/25 09:56:39;;;;;;;3.17;1.60;;;22.80;99.90;;;;;;4994484;28;20028;-86
2023/08/25 09:59:06;;;;;;;4.15;1.67;;;22.80;99.90;;;;;;4976041;28;20411;-86
2023/08/25 10:01:36;;;;;;;3.38;1.63;;;22.70;99.90;;;;;;4977323;28;20088;-86
2023/08/25 10:04:04;;;;;;;4.63;1.88;;;22.70;99.90;;;;;;4977038;28;20030;-87
2023/08/25 10:06:31;;;;;;;2.35;1.70;;;22.60;99.90;;;;;;4977193;28;20030;-86
2023/08/25 10:08:59;;;;;;;4.15;2.25;;;22.60;99.90;;;;;;4977245;28;20045;-86
2023/08/25 10:11:30;;;;;;;5.32;1.98;;;22.70;99.90;;;;;;4993088;28;20061;-86
2023/08/25 10:13:59;;;;;;;3.53;1.73;;;22.70;99.90;;;;;;4976696;28;20123;-86
2023/08/25 10:16:27;;;;;;;3.25;1.90;;;22.80;99.90;;;;;;4993487;28;20099;-88
2023/08/25 10:18:58;;;;;;;2.97;1.60;;;22.90;99.90;;;;;;4977099;28;20061;-88
2023/08/25 10:21:25;;;;;;;2.10;1.33;;;22.90;99.90;;;;;;4993350;28;20054;-87
2023/08/25 10:23:53;;;;;;;5.32;1.67;;;23.00;99.90;;;;;;4976815;28;20034;-86
2023/08/25 10:26:21;;;;;;;5.82;2.00;;;23.10;99.90;;;;;;4960500;28;20042;-86
2023/08/25 10:28:47;;;;;;;4.45;1.75;;;23.20;99.90;;;;;;4976837;28;20072;-86
2023/08/25 10:31:14;;;;;;;5.03;1.67;;;23.20;99.90;;;;;;4992815;28;20034;-85
2023/08/25 10:33:47;;;;;;;2.75;1.88;;;23.20;99.90;;;;;;4974518;28;20475;-86
2023/08/25 10:36:20;;;;;;;3.05;1.58;;;23.20;99.90;;;;;;4993322;28;20153;-86
2023/08/25 10:38:55;;;;;;;3.40;1.70;;;23.20;99.90;;;;;;4975462;28;20093;-87
2023/08/25 10:41:23;;;;;;;3.60;1.77;;;23.30;99.90;;;;;;4974380;28;20033;-86
2023/08/25 10:43:57;;;;;;;2.70;1.73;;;23.30;99.90;;;;;;4975728;28;20030;-87
2023/08/25 10:46:23;;;;;;;3.60;2.00;;;23.30;99.90;;;;;;4975727;28;20034;-86
2023/08/25 10:49:06;;;;;;;2.15;1.85;;;23.50;99.90;;;;;;4975687;28;20510;-86
2023/08/25 10:51:33;;;;;;;2.10;1.90;;;23.60;99.90;;;;;;4975066;28;20464;-86
2023/08/25 10:53:59;;;;;;;2.72;1.67;;;23.80;99.90;;;;;;4976291;28;20027;-86
2023/08/25 10:56:26;;;;;;;3.42;1.83;;;23.80;99.90;;;;;;4993223;28;20038;-85
2023/08/25 10:58:59;;;;;;;4.50;1.80;;;23.80;99.90;;;;;;4976701;28;20373;-86
2023/08/25 11:01:27;;;;;;;5.13;2.00;;;23.80;99.90;;;;;;4976265;28;20101;-87
2023/08/25 11:04:20;;;;;;;2.53;2.03;;;24.00;99.90;;;;;;4977167;28;20037;-86
2023/08/25 11:06:54;;;;;;;2.53;1.65;;;24.10;99.90;;;;;;4991162;28;20084;-86
2023/08/25 11:09:35;;;;;;;3.28;2.03;;;24.10;99.90;;;;;;4976622;28;20117;-86
2023/08/25 11:12:03;;;;;;;4.15;2.05;;;24.20;99.90;;;;;;4975170;28;20042;-86
2023/08/25 11:14:48;;;;;;;4.70;2.00;;;24.30;99.90;;;;;;4975605;28;20760;-88
2023/08/25 11:17:14;;;;;;;6.03;1.90;;;24.40;99.90;;;;;;4993184;28;20102;-86
2023/08/25 11:22:21;;;;;;;3.80;2.13;;;24.50;99.90;;;;;;5334315;23;20097;-89
2023/08/25 11:27:34;;;;;;;3.58;1.90;;;24.70;99.90;;;;;;4983281;28;20119;-96
2023/08/25 11:42:57;;;;;;;2.80;1.80;;;24.90;99.90;;;;;;5523827;23;20117;-90
2023/08/25 11:45:28;;;;;;;4.93;2.30;;;24.80;99.90;;;;;;4977101;28;20035;-92
2023/08/25 11:47:54;;;;;;;2.65;1.98;;;24.80;99.90;;;;;;4979294;28;20031;-92
2023/08/25 11:50:23;;;;;;;2.05;1.80;;;24.80;99.90;;;;;;4974586;28;20042;-92
2023/08/25 11:52:54;;;;;;;3.88;1.65;;;24.70;99.90;;;;;;5014518;28;20040;-94
2023/08/25 11:55:33;;;;;;;2.72;1.67;;;24.70;99.90;;;;;;5015459;28;20053;-94
2023/08/25 11:58:11;;;;;;;4.80;1.55;;;24.70;99.90;;;;;;5000582;28;20034;-91
2023/08/25 12:00:42;;;;;;;3.08;2.00;;;24.80;99.90;;;;;;5010623;28;20049;-92
2023/08/25 12:03:23;;;;;;;4.72;2.17;;;24.90;99.90;;;;;;5005595;28;20087;-92
2023/08/25 12:05:53;;;;;;;4.15;2.40;;;24.90;99.90;;;;;;5007525;28;20051;-90
2023/08/25 12:08:19;;;;;;;3.15;1.63;;;24.80;99.90;;;;;;5013202;28;20025;-93
2023/08/25 12:10:53;;;;;;;3.90;2.10;;;24.90;99.90;;;;;;5033010;28;20083;-91
2023/08/25 12:13:26;;;;;;;2.85;1.83;;;25.00;99.90;;;;;;4998297;28;20033;-92
2023/08/25 12:15:56;;;;;;;3.05;1.65;;;25.00;99.90;;;;;;5010834;28;20026;-90
2023/08/25 12:18:50;;;;;;;3.28;2.00;;;25.00;99.90;;;;;;5010701;28;20029;-90
2023/08/25 12:21:17;;;;;;;2.30;1.73;;;25.20;99.90;;;;;;5007321;28;20037;-92
2023/08/25 12:23:46;;;;;;;3.90;1.90;;;25.40;99.90;;;;;;5012608;28;20060;-92
2023/08/25 12:26:15;;;;;;;2.15;1.75;;;25.30;99.90;;;;;;5007782;28;20037;-92
2023/08/25 12:28:43;;;;;;;3.13;2.10;;;25.20;99.90;;;;;;5003936;28;20033;-90
2023/08/25 12:31:09;;;;;;;3.78;2.28;;;25.20;99.90;;;;;;5016197;28;20783;-91
2023/08/25 12:33:35;;;;;;;3.03;1.85;;;25.20;99.90;;;;;;5013072;28;20022;-89
2023/08/25 12:36:00;;;;;;;3.50;1.98;;;25.30;99.90;;;;;;5030115;28;20125;-87
2023/08/25 12:38:26;;;;;;;4.15;2.00;;;25.40;99.90;;;;;;5007498;28;20025;-92
2023/08/25 12:40:52;;;;;;;4.80;2.03;;;25.50;99.90;;;;;;5034118;28;20030;-90
2023/08/25 12:43:19;;;;;;;3.28;2.20;;;25.50;99.90;;;;;;5008978;28;20054;-88
2023/08/25 12:45:44;;;;;;;5.35;2.17;;;25.50;99.90;;;;;;5005774;28;20028;-90
2023/08/25 12:48:10;;;;;;;3.88;2.67;;;25.50;99.90;;;;;;5006788;28;20379;-91
2023/08/25 12:50:36;;;;;;;4.25;2.53;;;25.50;99.90;;;;;;5008001;28;20486;-90
2023/08/25 12:53:02;;;;;;;6.72;3.45;;;25.50;99.90;;;;;;5004924;28;20021;-91
2023/08/25 12:55:28;;;;;;;5.25;2.50;;;25.40;99.90;;;;;;5004190;28;20061;-88
2023/08/25 12:57:54;;;;;;;6.93;2.40;;;25.50;99.90;;;;;;5028248;28;20104;-89
2023/08/25 13:00:20;;;;;;;5.50;2.20;;;25.50;99.90;;;;;;5015935;28;20075;-89
2023/08/25 13:02:46;;;;;;;5.97;2.55;;;25.60;99.90;;;;;;5003684;28;20045;-90
2023/08/25 13:05:11;;;;;;;3.00;2.05;;;25.80;99.90;;;;;;4996733;28;20121;-89
2023/08/25 13:07:38;;;;;;;3.63;2.25;;;26.10;99.90;;;;;;5003627;28;20030;-90
2023/08/25 13:10:08;;;;;;;4.13;2.30;;;26.40;99.90;;;;;;5029105;28;20116;-88
2023/08/25 13:12:34;;;;;;;3.80;2.40;;;26.50;99.90;;;;;;5005348;28;20529;-87
2023/08/25 13:15:02;;;;;;;3.40;1.90;;;26.60;99.90;;;;;;5027952;28;20542;-89